Terminal Aerodrome Forecast
Issued by NWS Paducah, KY

Home | Current Version | Previous Version | Graphics & Text | Print | Product List | Glossary On
Versions: 1 2 3 4 5 6 7 8 9 10 11 12 13 14
348
FTUS43 KPAH 042320
TAFPAH
TAF
KPAH 042320Z 0500/0524 35012G20KT P6SM SCT100
     FM050200 34007KT P6SM SCT100
     FM051400 34012G20KT P6SM SCT050
     FM051800 35014G24KT P6SM BKN050=

USA.gov is the U.S. government's official web portal to all federal, state and local government web resources and services.